sensor_id;sensor_type;location;lat;lon;timestamp;temperature;humidity
12839;DHT22;6486;51.034;5.262;2023-05-08T00:01:07;18.20;77.60
12839;DHT22;6486;51.034;5.262;2023-05-08T00:03:33;18.20;77.70
12839;DHT22;6486;51.034;5.262;2023-05-08T00:05:59;18.20;77.70
12839;DHT22;6486;51.034;5.262;2023-05-08T00:08:24;18.20;77.80
12839;DHT22;6486;51.034;5.262;2023-05-08T00:10:50;18.20;77.80
12839;DHT22;6486;51.034;5.262;2023-05-08T00:13:16;18.10;77.90
12839;DHT22;6486;51.034;5.262;2023-05-08T00:15:41;18.10;77.90
12839;DHT22;6486;51.034;5.262;2023-05-08T00:18:07;18.10;78.00
12839;DHT22;6486;51.034;5.262;2023-05-08T00:20:33;18.10;78.00
12839;DHT22;6486;51.034;5.262;2023-05-08T00:22:59;18.10;77.90
12839;DHT22;6486;51.034;5.262;2023-05-08T00:25:26;18.20;78.00
12839;DHT22;6486;51.034;5.262;2023-05-08T00:27:52;18.10;77.80
12839;DHT22;6486;51.034;5.262;2023-05-08T00:30:17;18.10;77.70
12839;DHT22;6486;51.034;5.262;2023-05-08T00:32:43;18.20;77.70
12839;DHT22;6486;51.034;5.262;2023-05-08T00:35:09;18.10;77.60
12839;DHT22;6486;51.034;5.262;2023-05-08T00:37:35;18.10;77.80
12839;DHT22;6486;51.034;5.262;2023-05-08T00:40:02;18.10;78.00
12839;DHT22;6486;51.034;5.262;2023-05-08T00:42:28;18.10;78.00
12839;DHT22;6486;51.034;5.262;2023-05-08T00:44:54;18.00;77.90
12839;DHT22;6486;51.034;5.262;2023-05-08T00:47:20;18.00;77.90
12839;DHT22;6486;51.034;5.262;2023-05-08T00:49:47;18.00;77.90
12839;DHT22;6486;51.034;5.262;2023-05-08T00:52:13;18.00;77.90
12839;DHT22;6486;51.034;5.262;2023-05-08T00:54:39;18.00;78.00
12839;DHT22;6486;51.034;5.262;2023-05-08T00:57:06;18.00;78.00
12839;DHT22;6486;51.034;5.262;2023-05-08T00:59:32;18.00;78.00
12839;DHT22;6486;51.034;5.262;2023-05-08T01:01:59;18.00;78.00
12839;DHT22;6486;51.034;5.262;2023-05-08T01:04:25;18.00;78.10
12839;DHT22;6486;51.034;5.262;2023-05-08T01:06:52;18.00;78.20
12839;DHT22;6486;51.034;5.262;2023-05-08T01:09:17;18.00;78.20
12839;DHT22;6486;51.034;5.262;2023-05-08T01:14:47;17.90;78.10
12839;DHT22;6486;51.034;5.262;2023-05-08T01:34:02;17.80;78.70
12839;DHT22;6486;51.034;5.262;2023-05-08T01:36:49;17.80;78.80
12839;DHT22;6486;51.034;5.262;2023-05-08T01:42:25;17.90;78.80
12839;DHT22;6486;51.034;5.262;2023-05-08T01:45:09;17.90;78.80
12839;DHT22;6486;51.034;5.262;2023-05-08T01:47:37;17.90;78.90
12839;DHT22;6486;51.034;5.262;2023-05-08T01:50:12;17.90;78.90
12839;DHT22;6486;51.034;5.262;2023-05-08T01:52:47;17.90;78.90
12839;DHT22;6486;51.034;5.262;2023-05-08T01:55:23;17.90;78.90
12839;DHT22;6486;51.034;5.262;2023-05-08T01:57:53;17.90;78.90
12839;DHT22;6486;51.034;5.262;2023-05-08T02:00:21;17.90;78.90
12839;DHT22;6486;51.034;5.262;2023-05-08T02:02:48;17.90;79.00
12839;DHT22;6486;51.034;5.262;2023-05-08T02:05:16;17.90;79.00
12839;DHT22;6486;51.034;5.262;2023-05-08T02:07:44;17.90;78.90
12839;DHT22;6486;51.034;5.262;2023-05-08T02:10:12;17.90;79.00
12839;DHT22;6486;51.034;5.262;2023-05-08T02:12:40;17.90;79.00
12839;DHT22;6486;51.034;5.262;2023-05-08T02:15:08;17.90;78.90
12839;DHT22;6486;51.034;5.262;2023-05-08T02:17:35;17.90;78.90
12839;DHT22;6486;51.034;5.262;2023-05-08T02:20:03;17.90;78.90
12839;DHT22;6486;51.034;5.262;2023-05-08T02:22:30;17.90;79.00
12839;DHT22;6486;51.034;5.262;2023-05-08T02:24:57;17.90;79.10
12839;DHT22;6486;51.034;5.262;2023-05-08T02:27:24;17.80;79.00
12839;DHT22;6486;51.034;5.262;2023-05-08T02:29:51;17.80;79.10
12839;DHT22;6486;51.034;5.262;2023-05-08T02:32:19;17.80;79.10
12839;DHT22;6486;51.034;5.262;2023-05-08T02:34:47;17.80;79.10
12839;DHT22;6486;51.034;5.262;2023-05-08T02:37:14;17.80;79.10
12839;DHT22;6486;51.034;5.262;2023-05-08T02:39:41;17.80;79.10
12839;DHT22;6486;51.034;5.262;2023-05-08T02:42:09;17.80;79.10
12839;DHT22;6486;51.034;5.262;2023-05-08T02:44:34;17.80;79.20
12839;DHT22;6486;51.034;5.262;2023-05-08T02:47:22;17.70;79.20
12839;DHT22;6486;51.034;5.262;2023-05-08T02:49:51;17.60;79.50
12839;DHT22;6486;51.034;5.262;2023-05-08T02:52:31;17.60;79.60
12839;DHT22;6486;51.034;5.262;2023-05-08T02:55:04;17.50;79.60
12839;DHT22;6486;51.034;5.262;2023-05-08T02:57:42;17.50;79.60
12839;DHT22;6486;51.034;5.262;2023-05-08T03:00:15;17.60;79.60
12839;DHT22;6486;51.034;5.262;2023-05-08T03:02:49;17.50;79.50
12839;DHT22;6486;51.034;5.262;2023-05-08T03:05:19;17.60;79.60
12839;DHT22;6486;51.034;5.262;2023-05-08T03:07:49;17.60;79.60
12839;DHT22;6486;51.034;5.262;2023-05-08T03:10:17;17.60;79.60
12839;DHT22;6486;51.034;5.262;2023-05-08T03:12:46;17.50;79.60
12839;DHT22;6486;51.034;5.262;2023-05-08T03:15:28;17.50;79.60
12839;DHT22;6486;51.034;5.262;2023-05-08T03:18:01;17.50;79.60
12839;DHT22;6486;51.034;5.262;2023-05-08T03:20:33;17.50;79.70
12839;DHT22;6486;51.034;5.262;2023-05-08T03:23:01;17.60;79.90
12839;DHT22;6486;51.034;5.262;2023-05-08T03:25:27;17.60;80.00
12839;DHT22;6486;51.034;5.262;2023-05-08T03:27:54;17.50;80.00
12839;DHT22;6486;51.034;5.262;2023-05-08T03:30:21;17.60;80.10
12839;DHT22;6486;51.034;5.262;2023-05-08T03:32:48;17.50;80.10
12839;DHT22;6486;51.034;5.262;2023-05-08T03:35:15;17.50;80.20
12839;DHT22;6486;51.034;5.262;2023-05-08T03:37:41;17.60;80.30
12839;DHT22;6486;51.034;5.262;2023-05-08T03:40:08;17.60;80.40
12839;DHT22;6486;51.034;5.262;2023-05-08T03:42:35;17.60;80.50
12839;DHT22;6486;51.034;5.262;2023-05-08T03:45:02;17.50;80.50
12839;DHT22;6486;51.034;5.262;2023-05-08T03:47:28;17.50;80.60
12839;DHT22;6486;51.034;5.262;2023-05-08T03:49:54;17.60;80.80
12839;DHT22;6486;51.034;5.262;2023-05-08T03:52:20;17.50;80.80
12839;DHT22;6486;51.034;5.262;2023-05-08T03:54:46;17.50;80.80
12839;DHT22;6486;51.034;5.262;2023-05-08T03:57:11;17.50;80.80
12839;DHT22;6486;51.034;5.262;2023-05-08T03:59:41;17.60;81.00
12839;DHT22;6486;51.034;5.262;2023-05-08T04:02:49;17.60;81.10
12839;DHT22;6486;51.034;5.262;2023-05-08T04:05:30;17.50;81.00
12839;DHT22;6486;51.034;5.262;2023-05-08T04:08:08;17.60;81.10
12839;DHT22;6486;51.034;5.262;2023-05-08T04:10:47;17.50;81.00
12839;DHT22;6486;51.034;5.262;2023-05-08T04:13:19;17.50;81.20
12839;DHT22;6486;51.034;5.262;2023-05-08T04:15:50;17.50;81.40
12839;DHT22;6486;51.034;5.262;2023-05-08T04:18:19;17.50;81.50
12839;DHT22;6486;51.034;5.262;2023-05-08T04:20:48;17.40;81.40
12839;DHT22;6486;51.034;5.262;2023-05-08T04:23:17;17.40;81.50
12839;DHT22;6486;51.034;5.262;2023-05-08T04:25:43;17.50;81.60
12839;DHT22;6486;51.034;5.262;2023-05-08T04:28:10;17.40;81.70
12839;DHT22;6486;51.034;5.262;2023-05-08T04:30:36;17.40;81.70
12839;DHT22;6486;51.034;5.262;2023-05-08T04:33:04;17.30;81.70
12839;DHT22;6486;51.034;5.262;2023-05-08T04:35:31;17.40;81.80
12839;DHT22;6486;51.034;5.262;2023-05-08T04:37:57;17.40;81.80
12839;DHT22;6486;51.034;5.262;2023-05-08T04:40:24;17.40;81.80
12839;DHT22;6486;51.034;5.262;2023-05-08T04:42:49;17.40;81.80
12839;DHT22;6486;51.034;5.262;2023-05-08T04:45:15;17.50;81.80
12839;DHT22;6486;51.034;5.262;2023-05-08T04:47:41;17.40;81.70
12839;DHT22;6486;51.034;5.262;2023-05-08T04:50:07;17.50;81.70
12839;DHT22;6486;51.034;5.262;2023-05-08T04:52:33;17.50;81.70
12839;DHT22;6486;51.034;5.262;2023-05-08T04:54:58;17.50;81.90
12839;DHT22;6486;51.034;5.262;2023-05-08T04:57:24;17.40;81.90
12839;DHT22;6486;51.034;5.262;2023-05-08T04:59:49;17.40;81.90
12839;DHT22;6486;51.034;5.262;2023-05-08T05:02:15;17.40;81.90
12839;DHT22;6486;51.034;5.262;2023-05-08T05:04:41;17.50;82.00
12839;DHT22;6486;51.034;5.262;2023-05-08T05:07:07;17.40;82.00
12839;DHT22;6486;51.034;5.262;2023-05-08T05:09:32;17.40;82.10
12839;DHT22;6486;51.034;5.262;2023-05-08T05:12:02;17.40;82.10
12839;DHT22;6486;51.034;5.262;2023-05-08T05:14:28;17.40;82.10
12839;DHT22;6486;51.034;5.262;2023-05-08T05:16:53;17.40;82.00
12839;DHT22;6486;51.034;5.262;2023-05-08T05:19:19;17.40;82.00
12839;DHT22;6486;51.034;5.262;2023-05-08T05:21:45;17.50;82.10
12839;DHT22;6486;51.034;5.262;2023-05-08T05:24:11;17.40;82.10
12839;DHT22;6486;51.034;5.262;2023-05-08T05:26:36;17.40;82.10
12839;DHT22;6486;51.034;5.262;2023-05-08T05:29:02;17.40;82.20
12839;DHT22;6486;51.034;5.262;2023-05-08T05:31:28;17.40;82.20
12839;DHT22;6486;51.034;5.262;2023-05-08T05:33:54;17.40;82.20
12839;DHT22;6486;51.034;5.262;2023-05-08T05:36:20;17.40;82.20
12839;DHT22;6486;51.034;5.262;2023-05-08T05:38:46;17.50;82.20
12839;DHT22;6486;51.034;5.262;2023-05-08T05:41:12;17.40;82.20
12839;DHT22;6486;51.034;5.262;2023-05-08T05:43:38;17.40;82.30
12839;DHT22;6486;51.034;5.262;2023-05-08T05:46:05;17.50;82.20
12839;DHT22;6486;51.034;5.262;2023-05-08T05:48:31;17.50;82.20
12839;DHT22;6486;51.034;5.262;2023-05-08T05:50:57;17.50;82.10
12839;DHT22;6486;51.034;5.262;2023-05-08T05:53:23;17.50;82.10
12839;DHT22;6486;51.034;5.262;2023-05-08T05:55:49;17.50;82.10
12839;DHT22;6486;51.034;5.262;2023-05-08T05:58:14;17.50;82.10
12839;DHT22;6486;51.034;5.262;2023-05-08T06:00:41;17.60;82.20
12839;DHT22;6486;51.034;5.262;2023-05-08T06:03:07;17.60;82.20
12839;DHT22;6486;51.034;5.262;2023-05-08T06:05:33;17.60;82.20
12839;DHT22;6486;51.034;5.262;2023-05-08T06:07:59;17.70;82.40
12839;DHT22;6486;51.034;5.262;2023-05-08T06:10:25;17.60;82.40
12839;DHT22;6486;51.034;5.262;2023-05-08T06:12:50;17.60;82.40
12839;DHT22;6486;51.034;5.262;2023-05-08T06:15:16;17.70;82.40
12839;DHT22;6486;51.034;5.262;2023-05-08T06:17:42;17.70;82.40
12839;DHT22;6486;51.034;5.262;2023-05-08T06:20:08;17.70;82.30
12839;DHT22;6486;51.034;5.262;2023-05-08T06:22:34;17.70;82.20
12839;DHT22;6486;51.034;5.262;2023-05-08T06:25:02;17.80;82.30
12839;DHT22;6486;51.034;5.262;2023-05-08T06:27:29;17.70;82.30
12839;DHT22;6486;51.034;5.262;2023-05-08T06:29:55;17.70;82.20
12839;DHT22;6486;51.034;5.262;2023-05-08T06:32:21;17.70;82.20
12839;DHT22;6486;51.034;5.262;2023-05-08T06:34:47;17.70;82.20
12839;DHT22;6486;51.034;5.262;2023-05-08T06:37:13;17.80;82.30
12839;DHT22;6486;51.034;5.262;2023-05-08T06:39:38;17.80;82.30
12839;DHT22;6486;51.034;5.262;2023-05-08T06:42:04;17.80;82.30
12839;DHT22;6486;51.034;5.262;2023-05-08T06:44:31;17.80;82.30
12839;DHT22;6486;51.034;5.262;2023-05-08T06:46:57;17.80;82.30
12839;DHT22;6486;51.034;5.262;2023-05-08T06:49:23;17.80;82.30
12839;DHT22;6486;51.034;5.262;2023-05-08T06:51:49;17.80;82.20
12839;DHT22;6486;51.034;5.262;2023-05-08T06:54:14;17.90;82.20
12839;DHT22;6486;51.034;5.262;2023-05-08T06:56:40;17.90;82.20
12839;DHT22;6486;51.034;5.262;2023-05-08T06:59:06;17.90;82.20
12839;DHT22;6486;51.034;5.262;2023-05-08T07:01:31;17.90;82.20
12839;DHT22;6486;51.034;5.262;2023-05-08T07:03:57;17.90;82.20
12839;DHT22;6486;51.034;5.262;2023-05-08T07:06:23;17.90;82.30
12839;DHT22;6486;51.034;5.262;2023-05-08T07:08:48;17.90;82.30
12839;DHT22;6486;51.034;5.262;2023-05-08T07:11:14;17.90;82.20
12839;DHT22;6486;51.034;5.262;2023-05-08T07:13:40;18.00;82.20
12839;DHT22;6486;51.034;5.262;2023-05-08T07:16:08;18.00;82.20
12839;DHT22;6486;51.034;5.262;2023-05-08T07:18:35;18.10;82.20
12839;DHT22;6486;51.034;5.262;2023-05-08T07:21:00;18.10;82.20
12839;DHT22;6486;51.034;5.262;2023-05-08T07:23:26;18.10;82.10
12839;DHT22;6486;51.034;5.262;2023-05-08T07:25:52;18.20;82.20
12839;DHT22;6486;51.034;5.262;2023-05-08T07:28:19;18.20;82.10
12839;DHT22;6486;51.034;5.262;2023-05-08T07:30:44;18.20;82.00
12839;DHT22;6486;51.034;5.262;2023-05-08T07:33:10;18.30;82.00
12839;DHT22;6486;51.034;5.262;2023-05-08T07:35:38;18.30;81.90
12839;DHT22;6486;51.034;5.262;2023-05-08T07:38:04;18.40;81.80
12839;DHT22;6486;51.034;5.262;2023-05-08T07:40:29;18.40;81.70
12839;DHT22;6486;51.034;5.262;2023-05-08T07:42:55;18.40;81.70
12839;DHT22;6486;51.034;5.262;2023-05-08T07:45:21;18.40;81.70
12839;DHT22;6486;51.034;5.262;2023-05-08T07:47:51;18.40;81.70
12839;DHT22;6486;51.034;5.262;2023-05-08T07:50:17;18.40;81.60
12839;DHT22;6486;51.034;5.262;2023-05-08T07:52:43;18.40;81.50
12839;DHT22;6486;51.034;5.262;2023-05-08T07:55:09;18.40;81.60
12839;DHT22;6486;51.034;5.262;2023-05-08T07:57:41;18.30;81.50
12839;DHT22;6486;51.034;5.262;2023-05-08T08:00:09;18.30;81.40
12839;DHT22;6486;51.034;5.262;2023-05-08T08:02:35;18.30;81.40
12839;DHT22;6486;51.034;5.262;2023-05-08T08:05:01;18.30;81.50
12839;DHT22;6486;51.034;5.262;2023-05-08T08:07:26;18.20;81.30
12839;DHT22;6486;51.034;5.262;2023-05-08T08:09:52;18.20;81.30
12839;DHT22;6486;51.034;5.262;2023-05-08T08:12:18;18.10;81.30
12839;DHT22;6486;51.034;5.262;2023-05-08T08:14:45;18.10;81.50
12839;DHT22;6486;51.034;5.262;2023-05-08T08:17:10;18.10;81.50
12839;DHT22;6486;51.034;5.262;2023-05-08T08:19:36;18.20;81.70
12839;DHT22;6486;51.034;5.262;2023-05-08T08:22:02;18.30;81.60
12839;DHT22;6486;51.034;5.262;2023-05-08T08:24:27;18.40;81.60
12839;DHT22;6486;51.034;5.262;2023-05-08T08:26:54;18.50;81.40
12839;DHT22;6486;51.034;5.262;2023-05-08T08:29:19;18.60;81.30
12839;DHT22;6486;51.034;5.262;2023-05-08T08:31:45;18.80;81.70
12839;DHT22;6486;51.034;5.262;2023-05-08T08:34:11;18.80;80.90
12839;DHT22;6486;51.034;5.262;2023-05-08T08:36:38;18.80;80.70
12839;DHT22;6486;51.034;5.262;2023-05-08T08:39:03;18.90;80.50
12839;DHT22;6486;51.034;5.262;2023-05-08T08:41:29;18.90;80.50
12839;DHT22;6486;51.034;5.262;2023-05-08T08:43:55;19.00;80.50
12839;DHT22;6486;51.034;5.262;2023-05-08T08:46:23;19.00;80.30
12839;DHT22;6486;51.034;5.262;2023-05-08T08:48:50;19.00;80.00
12839;DHT22;6486;51.034;5.262;2023-05-08T08:51:30;19.00;80.00
12839;DHT22;6486;51.034;5.262;2023-05-08T08:56:30;19.00;79.80
12839;DHT22;6486;51.034;5.262;2023-05-08T08:58:57;19.00;79.60
12839;DHT22;6486;51.034;5.262;2023-05-08T09:01:25;19.00;79.60
12839;DHT22;6486;51.034;5.262;2023-05-08T09:03:55;19.00;79.50
12839;DHT22;6486;51.034;5.262;2023-05-08T09:06:21;19.20;79.50
12839;DHT22;6486;51.034;5.262;2023-05-08T09:08:47;19.20;79.20
12839;DHT22;6486;51.034;5.262;2023-05-08T09:11:12;19.30;79.00
12839;DHT22;6486;51.034;5.262;2023-05-08T09:13:38;19.30;78.70
12839;DHT22;6486;51.034;5.262;2023-05-08T09:16:04;19.30;78.70
12839;DHT22;6486;51.034;5.262;2023-05-08T09:18:30;19.40;78.70
12839;DHT22;6486;51.034;5.262;2023-05-08T09:20:56;19.40;78.40
12839;DHT22;6486;51.034;5.262;2023-05-08T09:23:21;19.50;78.50
12839;DHT22;6486;51.034;5.262;2023-05-08T09:25:48;19.40;78.20
12839;DHT22;6486;51.034;5.262;2023-05-08T09:28:17;19.40;78.00
12839;DHT22;6486;51.034;5.262;2023-05-08T09:33:18;19.50;77.60
12839;DHT22;6486;51.034;5.262;2023-05-08T09:35:44;19.50;77.40
12839;DHT22;6486;51.034;5.262;2023-05-08T09:41:13;19.40;77.00
12839;DHT22;6486;51.034;5.262;2023-05-08T09:43:40;19.40;77.00
12839;DHT22;6486;51.034;5.262;2023-05-08T09:46:23;19.50;77.10
12839;DHT22;6486;51.034;5.262;2023-05-08T09:48:50;19.70;77.10
12839;DHT22;6486;51.034;5.262;2023-05-08T09:51:16;20.00;76.70
12839;DHT22;6486;51.034;5.262;2023-05-08T09:53:43;20.20;76.40
12839;DHT22;6486;51.034;5.262;2023-05-08T09:56:08;20.40;76.10
12839;DHT22;6486;51.034;5.262;2023-05-08T09:58:42;20.60;75.90
12839;DHT22;6486;51.034;5.262;2023-05-08T10:01:27;20.70;75.30
12839;DHT22;6486;51.034;5.262;2023-05-08T10:03:53;20.80;75.00
12839;DHT22;6486;51.034;5.262;2023-05-08T10:06:18;20.80;74.40
12839;DHT22;6486;51.034;5.262;2023-05-08T10:08:45;20.70;74.00
12839;DHT22;6486;51.034;5.262;2023-05-08T10:11:18;20.70;73.90
12839;DHT22;6486;51.034;5.262;2023-05-08T10:13:44;20.70;73.90
12839;DHT22;6486;51.034;5.262;2023-05-08T10:16:15;20.70;73.90
12839;DHT22;6486;51.034;5.262;2023-05-08T10:18:48;20.80;73.80
12839;DHT22;6486;51.034;5.262;2023-05-08T10:21:15;20.70;73.30
12839;DHT22;6486;51.034;5.262;2023-05-08T10:23:42;20.80;73.30
12839;DHT22;6486;51.034;5.262;2023-05-08T10:26:18;20.80;73.00
12839;DHT22;6486;51.034;5.262;2023-05-08T10:28:55;20.80;73.50
12839;DHT22;6486;51.034;5.262;2023-05-08T10:31:24;20.80;72.30
12839;DHT22;6486;51.034;5.262;2023-05-08T10:33:54;20.90;72.40
12839;DHT22;6486;51.034;5.262;2023-05-08T10:36:24;20.90;72.20
12839;DHT22;6486;51.034;5.262;2023-05-08T10:38:51;20.90;71.90
12839;DHT22;6486;51.034;5.262;2023-05-08T10:41:18;21.00;71.50
12839;DHT22;6486;51.034;5.262;2023-05-08T10:43:44;21.20;71.50
12839;DHT22;6486;51.034;5.262;2023-05-08T10:46:29;21.50;71.30
12839;DHT22;6486;51.034;5.262;2023-05-08T10:54:12;21.90;70.80
12839;DHT22;6486;51.034;5.262;2023-05-08T10:56:43;22.00;70.60
12839;DHT22;6486;51.034;5.262;2023-05-08T10:59:17;22.10;70.40
12839;DHT22;6486;51.034;5.262;2023-05-08T11:01:47;22.10;70.10
12839;DHT22;6486;51.034;5.262;2023-05-08T11:04:22;22.20;69.80
12839;DHT22;6486;51.034;5.262;2023-05-08T11:06:49;22.20;69.60
12839;DHT22;6486;51.034;5.262;2023-05-08T11:09:21;22.70;69.10
12839;DHT22;6486;51.034;5.262;2023-05-08T11:12:07;22.80;68.70
12839;DHT22;6486;51.034;5.262;2023-05-08T11:14:38;22.90;68.70
12839;DHT22;6486;51.034;5.262;2023-05-08T11:17:07;22.90;68.20
12839;DHT22;6486;51.034;5.262;2023-05-08T11:19:33;22.90;68.10
12839;DHT22;6486;51.034;5.262;2023-05-08T11:24:48;22.80;68.10
12839;DHT22;6486;51.034;5.262;2023-05-08T11:27:14;22.80;68.00
12839;DHT22;6486;51.034;5.262;2023-05-08T11:29:40;22.60;67.50
12839;DHT22;6486;51.034;5.262;2023-05-08T11:32:06;22.60;67.60
12839;DHT22;6486;51.034;5.262;2023-05-08T11:37:20;22.50;67.50
12839;DHT22;6486;51.034;5.262;2023-05-08T11:39:46;22.60;67.00
12839;DHT22;6486;51.034;5.262;2023-05-08T11:47:37;22.70;67.00
12839;DHT22;6486;51.034;5.262;2023-05-08T11:50:04;22.70;66.30
12839;DHT22;6486;51.034;5.262;2023-05-08T11:52:34;22.80;66.40
12839;DHT22;6486;51.034;5.262;2023-05-08T11:55:03;22.80;66.30
12839;DHT22;6486;51.034;5.262;2023-05-08T11:57:30;22.80;66.30
12839;DHT22;6486;51.034;5.262;2023-05-08T11:59:57;22.80;66.10
12839;DHT22;6486;51.034;5.262;2023-05-08T12:02:38;22.90;66.20
12839;DHT22;6486;51.034;5.262;2023-05-08T12:05:05;22.80;65.90
12839;DHT22;6486;51.034;5.262;2023-05-08T12:07:31;22.70;66.00
12839;DHT22;6486;51.034;5.262;2023-05-08T12:10:00;22.70;65.90
12839;DHT22;6486;51.034;5.262;2023-05-08T12:12:41;22.70;65.60
12839;DHT22;6486;51.034;5.262;2023-05-08T12:15:08;22.70;65.50
12839;DHT22;6486;51.034;5.262;2023-05-08T12:17:33;22.60;64.80
12839;DHT22;6486;51.034;5.262;2023-05-08T12:20:14;22.70;64.70
12839;DHT22;6486;51.034;5.262;2023-05-08T12:22:40;22.70;64.60
12839;DHT22;6486;51.034;5.262;2023-05-08T12:25:07;22.70;64.50
12839;DHT22;6486;51.034;5.262;2023-05-08T12:27:36;22.70;64.30
12839;DHT22;6486;51.034;5.262;2023-05-08T12:30:10;22.70;64.30
12839;DHT22;6486;51.034;5.262;2023-05-08T12:32:37;22.70;64.50
12839;DHT22;6486;51.034;5.262;2023-05-08T12:35:08;22.80;64.70
12839;DHT22;6486;51.034;5.262;2023-05-08T12:37:34;23.10;64.80
12839;DHT22;6486;51.034;5.262;2023-05-08T12:39:59;23.20;64.50
12839;DHT22;6486;51.034;5.262;2023-05-08T12:43:01;23.30;64.40
12839;DHT22;6486;51.034;5.262;2023-05-08T12:45:36;23.60;64.00
12839;DHT22;6486;51.034;5.262;2023-05-08T12:48:05;24.00;63.90
12839;DHT22;6486;51.034;5.262;2023-05-08T12:50:36;24.10;63.60
12839;DHT22;6486;51.034;5.262;2023-05-08T12:55:33;24.20;62.90
12839;DHT22;6486;51.034;5.262;2023-05-08T12:58:08;24.30;62.60
12839;DHT22;6486;51.034;5.262;2023-05-08T13:03:07;24.20;62.50
12839;DHT22;6486;51.034;5.262;2023-05-08T13:05:34;24.10;62.10
12839;DHT22;6486;51.034;5.262;2023-05-08T13:08:05;24.20;62.20
12839;DHT22;6486;51.034;5.262;2023-05-08T13:10:52;24.20;62.10
12839;DHT22;6486;51.034;5.262;2023-05-08T13:13:20;24.20;61.70
12839;DHT22;6486;51.034;5.262;2023-05-08T13:15:47;24.20;61.40
12839;DHT22;6486;51.034;5.262;2023-05-08T13:18:14;24.20;61.40
12839;DHT22;6486;51.034;5.262;2023-05-08T13:20:40;24.40;61.30
12839;DHT22;6486;51.034;5.262;2023-05-08T13:23:07;24.50;60.90
12839;DHT22;6486;51.034;5.262;2023-05-08T13:25:34;24.60;60.70
12839;DHT22;6486;51.034;5.262;2023-05-08T13:28:00;24.60;61.00
12839;DHT22;6486;51.034;5.262;2023-05-08T13:30:26;24.50;60.90
12839;DHT22;6486;51.034;5.262;2023-05-08T13:32:52;24.50;60.90
12839;DHT22;6486;51.034;5.262;2023-05-08T13:35:19;24.30;60.60
12839;DHT22;6486;51.034;5.262;2023-05-08T13:37:45;24.30;60.80
12839;DHT22;6486;51.034;5.262;2023-05-08T13:40:11;24.20;60.80
12839;DHT22;6486;51.034;5.262;2023-05-08T13:42:37;24.30;60.90
12839;DHT22;6486;51.034;5.262;2023-05-08T13:45:04;24.40;60.80
12839;DHT22;6486;51.034;5.262;2023-05-08T13:47:30;24.50;60.80
12839;DHT22;6486;51.034;5.262;2023-05-08T13:49:56;24.70;60.10
12839;DHT22;6486;51.034;5.262;2023-05-08T13:52:22;24.80;59.80
12839;DHT22;6486;51.034;5.262;2023-05-08T13:54:47;24.80;59.70
12839;DHT22;6486;51.034;5.262;2023-05-08T13:57:13;24.80;59.90
12839;DHT22;6486;51.034;5.262;2023-05-08T13:59:39;24.90;60.00
12839;DHT22;6486;51.034;5.262;2023-05-08T14:02:05;25.00;59.70
12839;DHT22;6486;51.034;5.262;2023-05-08T14:04:31;25.20;59.30
12839;DHT22;6486;51.034;5.262;2023-05-08T14:06:57;25.20;58.90
12839;DHT22;6486;51.034;5.262;2023-05-08T14:09:22;25.20;59.30
12839;DHT22;6486;51.034;5.262;2023-05-08T14:11:48;25.20;58.60
12839;DHT22;6486;51.034;5.262;2023-05-08T14:14:14;25.20;58.50
12839;DHT22;6486;51.034;5.262;2023-05-08T14:16:39;25.20;58.40
12839;DHT22;6486;51.034;5.262;2023-05-08T14:19:05;25.30;58.50
12839;DHT22;6486;51.034;5.262;2023-05-08T14:21:31;25.30;58.20
12839;DHT22;6486;51.034;5.262;2023-05-08T14:23:57;25.30;57.60
12839;DHT22;6486;51.034;5.262;2023-05-08T14:26:22;25.20;57.00
12839;DHT22;6486;51.034;5.262;2023-05-08T14:28:48;25.10;57.00
12839;DHT22;6486;51.034;5.262;2023-05-08T14:31:14;25.00;58.00
12839;DHT22;6486;51.034;5.262;2023-05-08T14:33:40;24.90;57.50
12839;DHT22;6486;51.034;5.262;2023-05-08T14:36:05;24.80;57.40
12839;DHT22;6486;51.034;5.262;2023-05-08T14:38:31;24.70;57.60
12839;DHT22;6486;51.034;5.262;2023-05-08T14:40:57;24.60;57.70
12839;DHT22;6486;51.034;5.262;2023-05-08T14:43:23;24.60;57.80
12839;DHT22;6486;51.034;5.262;2023-05-08T14:45:49;24.70;57.80
12839;DHT22;6486;51.034;5.262;2023-05-08T14:48:14;24.80;57.80
12839;DHT22;6486;51.034;5.262;2023-05-08T14:50:40;25.00;57.80
12839;DHT22;6486;51.034;5.262;2023-05-08T14:53:07;25.00;57.80
12839;DHT22;6486;51.034;5.262;2023-05-08T14:55:32;25.00;57.50
12839;DHT22;6486;51.034;5.262;2023-05-08T14:57:58;24.90;57.40
12839;DHT22;6486;51.034;5.262;2023-05-08T15:00:24;24.80;57.40
12839;DHT22;6486;51.034;5.262;2023-05-08T15:02:49;24.80;57.50
12839;DHT22;6486;51.034;5.262;2023-05-08T15:05:16;24.80;57.40
12839;DHT22;6486;51.034;5.262;2023-05-08T15:07:42;24.80;57.40
12839;DHT22;6486;51.034;5.262;2023-05-08T15:10:07;24.80;57.40
12839;DHT22;6486;51.034;5.262;2023-05-08T15:12:33;24.80;57.20
12839;DHT22;6486;51.034;5.262;2023-05-08T15:14:59;24.80;57.30
12839;DHT22;6486;51.034;5.262;2023-05-08T15:17:25;24.80;57.30
12839;DHT22;6486;51.034;5.262;2023-05-08T15:19:50;24.80;57.30
12839;DHT22;6486;51.034;5.262;2023-05-08T15:22:16;24.80;57.40
12839;DHT22;6486;51.034;5.262;2023-05-08T15:24:44;24.80;57.10
12839;DHT22;6486;51.034;5.262;2023-05-08T15:27:10;24.70;57.00
12839;DHT22;6486;51.034;5.262;2023-05-08T15:29:36;24.60;56.80
12839;DHT22;6486;51.034;5.262;2023-05-08T15:32:04;24.50;57.00
12839;DHT22;6486;51.034;5.262;2023-05-08T15:34:30;24.40;57.30
12839;DHT22;6486;51.034;5.262;2023-05-08T15:36:56;24.40;57.40
12839;DHT22;6486;51.034;5.262;2023-05-08T15:39:21;24.40;57.30
12839;DHT22;6486;51.034;5.262;2023-05-08T15:41:47;24.50;57.30
12839;DHT22;6486;51.034;5.262;2023-05-08T15:44:13;24.60;57.20
12839;DHT22;6486;51.034;5.262;2023-05-08T15:46:39;24.70;57.20
12839;DHT22;6486;51.034;5.262;2023-05-08T15:49:04;24.70;56.80
12839;DHT22;6486;51.034;5.262;2023-05-08T15:51:30;24.70;57.00
12839;DHT22;6486;51.034;5.262;2023-05-08T15:53:56;24.80;57.00
12839;DHT22;6486;51.034;5.262;2023-05-08T15:56:22;24.80;56.80
12839;DHT22;6486;51.034;5.262;2023-05-08T15:58:50;24.80;56.90
12839;DHT22;6486;51.034;5.262;2023-05-08T16:01:17;24.80;56.80
12839;DHT22;6486;51.034;5.262;2023-05-08T16:03:42;24.80;56.70
12839;DHT22;6486;51.034;5.262;2023-05-08T16:06:08;24.70;56.80
12839;DHT22;6486;51.034;5.262;2023-05-08T16:08:34;24.70;56.70
12839;DHT22;6486;51.034;5.262;2023-05-08T16:11:00;24.60;56.40
12839;DHT22;6486;51.034;5.262;2023-05-08T16:13:26;24.60;56.30
12839;DHT22;6486;51.034;5.262;2023-05-08T16:15:52;24.60;56.30
12839;DHT22;6486;51.034;5.262;2023-05-08T16:18:18;24.60;56.30
12839;DHT22;6486;51.034;5.262;2023-05-08T16:20:44;24.60;56.30
12839;DHT22;6486;51.034;5.262;2023-05-08T16:23:10;24.50;56.20
12839;DHT22;6486;51.034;5.262;2023-05-08T16:25:35;24.50;56.20
12839;DHT22;6486;51.034;5.262;2023-05-08T16:28:01;24.40;56.30
12839;DHT22;6486;51.034;5.262;2023-05-08T16:30:27;24.40;56.40
12839;DHT22;6486;51.034;5.262;2023-05-08T16:32:53;24.30;56.30
12839;DHT22;6486;51.034;5.262;2023-05-08T16:35:18;24.30;56.50
12839;DHT22;6486;51.034;5.262;2023-05-08T16:37:44;24.20;56.60
12839;DHT22;6486;51.034;5.262;2023-05-08T16:40:10;24.20;56.60